createdAt,value
2022-11-29T00:00:58.417Z,8.20
2022-11-29T00:03:25.479Z,8.21
2022-11-29T00:05:52.042Z,8.19
2022-11-29T00:08:19.745Z,8.18
2022-11-29T00:10:46.395Z,8.18
2022-11-29T00:13:12.910Z,8.17
2022-11-29T00:15:40.141Z,8.17
2022-11-29T00:18:07.579Z,8.17
2022-11-29T00:20:35.390Z,8.14
2022-11-29T00:23:02.066Z,8.14
2022-11-29T00:25:28.538Z,8.14
2022-11-29T00:27:54.924Z,8.14
2022-11-29T00:30:21.459Z,8.14
2022-11-29T00:32:48.171Z,8.15
2022-11-29T00:35:14.919Z,8.16
2022-11-29T00:37:41.299Z,8.16
2022-11-29T00:40:08.542Z,8.21
2022-11-29T00:42:34.956Z,8.20
2022-11-29T00:45:01.432Z,8.21
2022-11-29T00:47:28.945Z,8.22
2022-11-29T00:49:55.383Z,8.24
2022-11-29T00:52:21.783Z,8.24
2022-11-29T00:54:48.257Z,8.21
2022-11-29T00:57:14.738Z,8.22
2022-11-29T00:59:41.140Z,8.18
2022-11-29T01:02:07.589Z,8.16
2022-11-29T01:04:34.049Z,8.16
2022-11-29T01:07:00.610Z,8.19
2022-11-29T01:09:27.088Z,8.18
2022-11-29T01:11:53.637Z,8.16
2022-11-29T01:14:20.143Z,8.15
2022-11-29T01:16:46.652Z,8.14
2022-11-29T01:19:13.091Z,8.15
2022-11-29T01:21:39.584Z,8.17
2022-11-29T01:24:06.112Z,8.17
2022-11-29T01:26:33.023Z,8.18
2022-11-29T01:29:00.093Z,8.17
2022-11-29T01:31:30.192Z,8.14
2022-11-29T01:33:58.643Z,8.11
2022-11-29T01:36:25.955Z,8.10
2022-11-29T01:38:52.543Z,8.06
2022-11-29T01:41:22.471Z,8.08
2022-11-29T01:44:05.180Z,8.08
2022-11-29T01:46:34.941Z,8.08
2022-11-29T01:49:10.752Z,8.09
2022-11-29T01:51:40.343Z,8.08
2022-11-29T01:54:08.531Z,8.07
2022-11-29T01:56:35.210Z,8.04
2022-11-29T01:59:06.106Z,8.03
2022-11-29T02:01:34.576Z,8.07
2022-11-29T02:04:01.592Z,8.06
2022-11-29T02:06:29.542Z,8.08
2022-11-29T02:08:56.279Z,8.10
2022-11-29T02:11:42.819Z,8.11
2022-11-29T02:14:34.607Z,8.12
2022-11-29T02:17:22.989Z,8.09
2022-11-29T02:19:58.596Z,8.04
2022-11-29T02:22:30.925Z,8.05
2022-11-29T02:25:27.763Z,8.04
2022-11-29T02:28:10.375Z,8.06
2022-11-29T02:31:01.640Z,8.04
2022-11-29T02:33:53.024Z,8.06
2022-11-29T02:36:35.971Z,8.07
2022-11-29T02:39:25.422Z,8.04
2022-11-29T02:42:10.510Z,8.05
2022-11-29T02:44:49.242Z,8.03
2022-11-29T02:47:28.779Z,7.97
2022-11-29T02:50:09.844Z,7.92
2022-11-29T02:52:50.225Z,7.92
2022-11-29T02:55:39.628Z,7.95
2022-11-29T02:58:17.804Z,7.95
2022-11-29T03:00:58.226Z,7.93
2022-11-29T03:03:37.137Z,7.94
2022-11-29T03:06:20.426Z,7.94
2022-11-29T03:09:13.234Z,7.91
2022-11-29T03:12:00.522Z,7.91
2022-11-29T03:14:38.267Z,7.90
2022-11-29T03:17:17.074Z,7.90
2022-11-29T03:20:17.635Z,7.89
2022-11-29T03:22:48.178Z,7.89
2022-11-29T03:25:25.806Z,7.88
2022-11-29T03:28:03.114Z,7.87
2022-11-29T03:30:32.458Z,7.88
2022-11-29T03:33:26.644Z,7.87
2022-11-29T03:36:07.302Z,7.85
2022-11-29T03:38:42.639Z,7.83
2022-11-29T03:41:27.792Z,7.84
2022-11-29T03:44:00.179Z,7.85
2022-11-29T03:46:42.378Z,7.84
2022-11-29T03:49:26.513Z,7.85
2022-11-29T03:51:58.562Z,7.86
2022-11-29T03:54:38.814Z,7.84
2022-11-29T03:57:06.715Z,7.84
2022-11-29T04:00:06.323Z,7.82
2022-11-29T04:03:19.048Z,7.79
2022-11-29T04:06:10.942Z,7.74
2022-11-29T04:08:46.413Z,7.73
2022-11-29T04:11:28.088Z,7.70
2022-11-29T04:14:16.629Z,7.68
2022-11-29T04:17:15.342Z,7.67
2022-11-29T04:19:57.111Z,7.66
2022-11-29T04:22:51.450Z,7.65
2022-11-29T04:26:10.398Z,7.61
2022-11-29T04:29:11.373Z,7.61
2022-11-29T04:31:59.635Z,7.60
2022-11-29T04:35:05.421Z,7.60
2022-11-29T04:37:52.308Z,7.59
2022-11-29T04:40:45.227Z,7.57
2022-11-29T04:43:39.324Z,7.55
2022-11-29T04:46:31.757Z,7.57
2022-11-29T04:49:18.962Z,7.54
2022-11-29T04:52:22.625Z,7.53
2022-11-29T04:54:57.051Z,7.52
2022-11-29T04:57:39.303Z,7.51
2022-11-29T05:00:35.074Z,7.49
2022-11-29T05:03:16.696Z,7.52
2022-11-29T05:05:46.891Z,7.52
2022-11-29T05:08:37.680Z,7.54
2022-11-29T05:11:50.879Z,7.56
2022-11-29T05:14:32.412Z,7.57
2022-11-29T05:17:23.936Z,7.58
2022-11-29T05:20:21.418Z,7.60
2022-11-29T05:23:03.980Z,7.60
2022-11-29T05:25:37.379Z,7.60
2022-11-29T05:28:12.843Z,7.61
2022-11-29T05:31:16.778Z,7.62
2022-11-29T05:34:04.283Z,7.65
2022-11-29T05:37:01.802Z,7.62
2022-11-29T05:40:14.454Z,7.61
2022-11-29T05:42:52.790Z,7.60
2022-11-29T05:45:33.070Z,7.59
2022-11-29T05:48:07.047Z,7.59
2022-11-29T05:50:40.897Z,7.58
2022-11-29T05:53:49.784Z,7.56
2022-11-29T05:56:40.336Z,7.56
2022-11-29T05:59:15.746Z,7.56
2022-11-29T06:02:12.661Z,7.57
2022-11-29T06:05:00.459Z,7.56
2022-11-29T06:07:32.132Z,7.58
2022-11-29T06:10:17.660Z,7.57
2022-11-29T06:13:00.272Z,7.55
2022-11-29T06:15:43.235Z,7.55
2022-11-29T06:18:15.677Z,7.56
2022-11-29T06:21:16.876Z,7.57
2022-11-29T06:24:01.698Z,7.57
2022-11-29T06:26:46.937Z,7.58
2022-11-29T06:29:49.406Z,7.60
2022-11-29T06:32:40.159Z,7.59
2022-11-29T06:35:15.202Z,7.59
2022-11-29T06:37:54.665Z,7.57
2022-11-29T06:40:21.610Z,7.55
2022-11-29T06:42:48.927Z,7.57
2022-11-29T06:45:16.353Z,7.57
2022-11-29T06:47:47.634Z,7.55
2022-11-29T06:50:32.423Z,7.53
2022-11-29T06:53:07.079Z,7.50
2022-11-29T06:56:04.529Z,7.52
2022-11-29T06:59:05.106Z,7.51
2022-11-29T07:01:55.223Z,7.52
2022-11-29T07:04:46.357Z,7.53
2022-11-29T07:07:20.290Z,7.52
2022-11-29T07:09:49.387Z,7.52
2022-11-29T07:12:17.460Z,7.52
2022-11-29T07:14:45.147Z,7.51
2022-11-29T07:17:20.562Z,7.48
2022-11-29T07:20:19.697Z,7.47
2022-11-29T07:22:55.344Z,7.46
2022-11-29T07:25:44.519Z,7.47
2022-11-29T07:28:32.223Z,7.46
2022-11-29T07:31:12.189Z,7.45
2022-11-29T07:34:02.243Z,7.43
2022-11-29T07:36:48.403Z,7.44
2022-11-29T07:39:41.775Z,7.35
2022-11-29T07:42:30.930Z,7.28
2022-11-29T07:45:00.439Z,7.25
2022-11-29T07:47:29.087Z,7.22
2022-11-29T07:49:59.107Z,7.20
2022-11-29T07:52:25.515Z,7.20
2022-11-29T07:54:52.003Z,7.21
2022-11-29T07:57:18.418Z,7.20
2022-11-29T07:59:45.101Z,7.19
2022-11-29T08:02:12.155Z,7.19
2022-11-29T08:04:44.426Z,7.13
2022-11-29T08:07:11.384Z,7.07
2022-11-29T08:09:37.798Z,7.08
2022-11-29T08:12:04.479Z,7.06
2022-11-29T08:14:32.888Z,7.05
2022-11-29T08:16:59.340Z,7.07
2022-11-29T08:19:25.881Z,7.09
2022-11-29T08:21:52.471Z,7.10
2022-11-29T08:24:18.910Z,7.13
2022-11-29T08:26:45.392Z,7.15
2022-11-29T08:29:11.859Z,7.16
2022-11-29T08:31:38.384Z,7.17
2022-11-29T08:34:06.379Z,7.19
2022-11-29T08:36:33.154Z,7.23
2022-11-29T08:39:08.899Z,7.28
2022-11-29T08:41:36.243Z,7.31
2022-11-29T08:44:04.790Z,7.32
2022-11-29T08:46:49.585Z,7.34
2022-11-29T08:49:16.370Z,7.34
2022-11-29T08:51:42.813Z,7.35
2022-11-29T08:54:09.478Z,7.38
2022-11-29T08:59:23.939Z,7.39
2022-11-29T09:01:50.462Z,7.41
2022-11-29T09:04:17.588Z,7.41
2022-11-29T09:06:44.411Z,7.44
2022-11-29T09:09:10.863Z,7.49
2022-11-29T09:11:37.318Z,7.52
2022-11-29T09:14:06.493Z,7.56
2022-11-29T09:16:36.166Z,7.61
2022-11-29T09:19:06.329Z,7.61
2022-11-29T09:21:36.456Z,7.64
2022-11-29T09:24:06.246Z,7.60
2022-11-29T09:26:35.146Z,7.59
2022-11-29T09:29:04.578Z,7.67
2022-11-29T09:31:31.868Z,7.70
2022-11-29T09:33:58.515Z,7.66
2022-11-29T09:36:28.410Z,7.65
2022-11-29T09:38:55.221Z,7.66
2022-11-29T09:41:52.643Z,7.72
2022-11-29T09:44:29.393Z,7.80
2022-11-29T09:47:47.663Z,7.84
2022-11-29T09:50:20.176Z,7.83
2022-11-29T09:53:14.592Z,7.84
2022-11-29T09:56:03.266Z,7.87
2022-11-29T09:58:36.919Z,7.97
2022-11-29T10:01:08.111Z,8.03
2022-11-29T10:03:40.626Z,8.02
2022-11-29T10:06:30.813Z,8.06
2022-11-29T10:09:12.166Z,8.09
2022-11-29T10:11:47.482Z,8.11
2022-11-29T10:14:23.005Z,8.12
2022-11-29T10:16:58.070Z,8.08
2022-11-29T10:19:45.976Z,8.07
2022-11-29T10:22:35.526Z,8.02
2022-11-29T10:25:03.376Z,8.00
2022-11-29T10:27:30.014Z,8.05
2022-11-29T10:29:59.189Z,8.13
2022-11-29T10:32:28.900Z,8.20
2022-11-29T10:34:58.531Z,8.22
2022-11-29T10:37:25.100Z,8.21
2022-11-29T10:40:00.021Z,8.28
2022-11-29T10:42:47.686Z,8.30
2022-11-29T10:45:31.638Z,8.27
2022-11-29T10:48:03.627Z,8.32
2022-11-29T10:50:36.927Z,8.34
2022-11-29T10:53:10.445Z,8.33
2022-11-29T10:55:50.865Z,8.34
2022-11-29T10:58:24.820Z,8.38
2022-11-29T11:01:20.357Z,8.39
2022-11-29T11:03:52.964Z,8.45
2022-11-29T11:06:24.172Z,8.52
2022-11-29T11:09:11.927Z,8.52
2022-11-29T11:11:39.415Z,8.47
2022-11-29T11:14:19.307Z,8.47
2022-11-29T11:16:45.785Z,8.48
2022-11-29T11:19:30.007Z,8.56
2022-11-29T11:21:58.431Z,8.59
2022-11-29T11:24:28.423Z,8.60
2022-11-29T11:26:55.420Z,8.71
2022-11-29T11:29:34.304Z,8.79
2022-11-29T11:32:00.899Z,8.71
2022-11-29T11:34:34.074Z,8.72
2022-11-29T11:37:15.538Z,8.77
2022-11-29T11:39:43.152Z,8.78
2022-11-29T11:42:38.022Z,8.77
2022-11-29T11:45:22.103Z,8.73
2022-11-29T11:47:54.844Z,8.75
2022-11-29T11:50:31.536Z,8.83
2022-11-29T11:53:03.794Z,8.87
2022-11-29T11:55:42.914Z,8.85
2022-11-29T11:58:12.053Z,8.89
2022-11-29T12:01:09.646Z,8.95
2022-11-29T12:03:45.699Z,8.97
2022-11-29T12:06:17.486Z,9.06
2022-11-29T12:08:45.715Z,9.15
2022-11-29T12:11:16.353Z,9.17
2022-11-29T12:13:48.895Z,9.17
2022-11-29T12:16:27.342Z,9.21
2022-11-29T12:19:25.023Z,9.28
2022-11-29T12:21:59.608Z,9.28
2022-11-29T12:24:33.742Z,9.35
2022-11-29T12:27:04.827Z,9.42
2022-11-29T12:29:35.096Z,9.47
2022-11-29T12:32:13.783Z,9.48
2022-11-29T12:35:09.231Z,9.52
2022-11-29T12:38:07.837Z,9.55
2022-11-29T12:41:14.767Z,9.59
2022-11-29T12:43:53.274Z,9.60
2022-11-29T12:46:25.838Z,9.63
2022-11-29T12:49:10.703Z,9.64
2022-11-29T12:51:51.617Z,9.63
2022-11-29T12:54:29.626Z,9.63
2022-11-29T12:57:22.398Z,9.61
2022-11-29T13:00:01.151Z,9.65
2022-11-29T13:03:03.006Z,9.67
2022-11-29T13:06:01.760Z,9.67
2022-11-29T13:08:48.177Z,9.67
2022-11-29T13:11:27.378Z,9.61
2022-11-29T13:14:43.629Z,9.64
2022-11-29T13:17:29.389Z,9.73
2022-11-29T13:20:01.880Z,9.67
2022-11-29T13:22:38.704Z,9.74
2022-11-29T13:25:24.415Z,9.74
2022-11-29T13:28:14.113Z,9.72
2022-11-29T13:30:41.000Z,9.68
2022-11-29T13:33:27.407Z,9.66
2022-11-29T13:36:17.467Z,9.65
2022-11-29T13:38:43.923Z,9.63
2022-11-29T13:41:27.940Z,9.62
2022-11-29T13:44:08.783Z,9.65
2022-11-29T13:46:41.337Z,9.66
2022-11-29T13:49:20.359Z,9.62
2022-11-29T13:51:46.903Z,9.64
2022-11-29T13:54:30.648Z,9.62
2022-11-29T13:57:06.499Z,9.59
2022-11-29T13:59:36.919Z,9.59
2022-11-29T14:02:13.990Z,9.57
2022-11-29T14:04:45.883Z,9.59
2022-11-29T14:07:18.689Z,9.56
2022-11-29T14:09:47.989Z,9.52
2022-11-29T14:12:43.250Z,9.50
2022-11-29T14:15:28.199Z,9.54
2022-11-29T14:18:02.792Z,9.53
2022-11-29T14:20:29.176Z,9.48
2022-11-29T14:23:04.809Z,9.48
2022-11-29T14:28:18.447Z,9.33
2022-11-29T14:30:44.837Z,9.25
2022-11-29T14:33:38.838Z,9.19
2022-11-29T14:36:14.654Z,9.09
2022-11-29T14:38:59.535Z,9.08
2022-11-29T14:41:42.768Z,9.02
2022-11-29T14:44:30.978Z,8.96
2022-11-29T14:47:23.951Z,8.90
2022-11-29T14:49:52.875Z,8.86
2022-11-29T14:52:26.114Z,8.83
2022-11-29T14:55:07.786Z,8.77
2022-11-29T14:57:53.248Z,8.71
2022-11-29T15:00:27.250Z,8.68
2022-11-29T15:03:17.262Z,8.60
2022-11-29T15:05:46.299Z,8.56
2022-11-29T15:08:18.974Z,8.46
2022-11-29T15:11:11.473Z,8.41
2022-11-29T15:13:46.179Z,8.32
2022-11-29T15:16:18.216Z,8.27
2022-11-29T15:19:13.201Z,8.24
2022-11-29T15:21:48.521Z,8.19
2022-11-29T15:24:17.168Z,8.12
2022-11-29T15:27:01.379Z,8.08
2022-11-29T15:29:29.691Z,7.95
2022-11-29T15:32:03.410Z,7.91
2022-11-29T15:34:40.652Z,7.89
2022-11-29T15:37:20.733Z,7.85
2022-11-29T15:39:47.156Z,7.86
2022-11-29T15:42:15.815Z,7.80
2022-11-29T15:44:46.622Z,7.76
2022-11-29T15:47:16.003Z,7.71
2022-11-29T15:49:42.594Z,7.68
2022-11-29T15:52:18.529Z,7.70
2022-11-29T15:54:51.221Z,7.72
2022-11-29T15:57:33.536Z,7.70
2022-11-29T16:00:07.341Z,7.70
2022-11-29T16:02:38.170Z,7.71
2022-11-29T16:05:14.973Z,7.72
2022-11-29T16:07:42.766Z,7.69
2022-11-29T16:10:20.658Z,7.66
2022-11-29T16:13:02.190Z,7.64
2022-11-29T16:15:37.209Z,7.62
2022-11-29T16:18:05.722Z,7.60
2022-11-29T16:20:32.359Z,7.59
2022-11-29T16:23:07.891Z,7.57
2022-11-29T16:25:48.176Z,7.54
2022-11-29T16:28:14.787Z,7.55
2022-11-29T16:30:42.709Z,7.55
2022-11-29T16:33:19.920Z,7.54
2022-11-29T16:35:46.748Z,7.52
2022-11-29T16:38:31.405Z,7.51
2022-11-29T16:41:20.783Z,7.49
2022-11-29T16:43:50.683Z,7.45
2022-11-29T16:46:20.150Z,7.46
2022-11-29T16:48:50.187Z,7.45
2022-11-29T16:51:37.392Z,7.45
2022-11-29T16:54:34.384Z,7.46
2022-11-29T16:57:06.274Z,7.49
2022-11-29T16:59:32.935Z,7.54
2022-11-29T17:01:59.468Z,7.58
2022-11-29T17:04:26.336Z,7.57
2022-11-29T17:06:54.767Z,7.56
2022-11-29T17:09:30.728Z,7.56
2022-11-29T17:11:59.849Z,7.54
2022-11-29T17:14:26.962Z,7.53
2022-11-29T17:16:53.530Z,7.52
2022-11-29T17:19:23.978Z,7.55
2022-11-29T17:21:51.873Z,7.55
2022-11-29T17:24:19.851Z,7.55
2022-11-29T17:26:46.320Z,7.54
2022-11-29T17:29:14.892Z,7.54
2022-11-29T17:31:43.624Z,7.51
2022-11-29T17:34:10.607Z,7.52
2022-11-29T17:36:37.868Z,7.50
2022-11-29T17:39:05.498Z,7.50
2022-11-29T17:41:32.855Z,7.50
2022-11-29T17:43:59.959Z,7.48
2022-11-29T17:46:27.622Z,7.46
2022-11-29T17:48:54.849Z,7.45
2022-11-29T17:54:11.029Z,7.44
2022-11-29T17:56:37.882Z,7.43
2022-11-29T17:59:05.288Z,7.43
2022-11-29T18:01:33.795Z,7.40
2022-11-29T18:04:02.873Z,7.41
2022-11-29T18:06:34.730Z,7.41
2022-11-29T18:09:01.809Z,7.41
2022-11-29T18:11:41.651Z,7.41
2022-11-29T18:14:13.653Z,7.42
2022-11-29T18:16:40.115Z,7.40
2022-11-29T18:19:09.307Z,7.40
2022-11-29T18:21:37.099Z,7.43
2022-11-29T18:24:05.351Z,7.41
2022-11-29T18:26:33.166Z,7.40
2022-11-29T18:29:00.031Z,7.40
2022-11-29T18:31:31.181Z,7.43
2022-11-29T18:34:00.262Z,7.41
2022-11-29T18:36:31.894Z,7.41
2022-11-29T18:39:00.929Z,7.42
2022-11-29T18:41:29.164Z,7.40
2022-11-29T18:44:01.618Z,7.41
2022-11-29T18:46:36.742Z,7.40
2022-11-29T18:49:06.486Z,7.40
2022-11-29T18:51:34.121Z,7.45
2022-11-29T18:54:01.252Z,7.46
2022-11-29T18:56:31.874Z,7.44
2022-11-29T18:59:04.078Z,7.45
2022-11-29T19:01:34.000Z,7.44
2022-11-29T19:04:01.672Z,7.46
2022-11-29T19:06:39.416Z,7.48
2022-11-29T19:09:11.526Z,7.47
2022-11-29T19:11:38.092Z,7.44
2022-11-29T19:14:10.955Z,7.42
2022-11-29T19:16:38.464Z,7.42
2022-11-29T19:19:05.079Z,7.44
2022-11-29T19:21:34.160Z,7.42
2022-11-29T19:24:02.863Z,7.42
2022-11-29T19:26:31.158Z,7.42
2022-11-29T19:28:57.839Z,7.40
2022-11-29T19:31:25.182Z,7.38
2022-11-29T19:33:52.532Z,7.37
2022-11-29T19:36:24.613Z,7.39
2022-11-29T19:38:53.676Z,7.39
2022-11-29T19:41:27.059Z,7.38
2022-11-29T19:43:55.950Z,7.39
2022-11-29T19:46:25.858Z,7.38
2022-11-29T19:48:54.075Z,7.39
2022-11-29T19:51:21.732Z,7.41
2022-11-29T19:53:52.112Z,7.42
2022-11-29T19:56:20.343Z,7.43
2022-11-29T19:58:47.185Z,7.45
2022-11-29T20:01:17.690Z,7.45
2022-11-29T20:03:47.354Z,7.43
2022-11-29T20:06:14.198Z,7.45
2022-11-29T20:08:41.571Z,7.46
2022-11-29T20:11:12.287Z,7.47
2022-11-29T20:13:39.862Z,7.45
2022-11-29T20:16:09.764Z,7.45
2022-11-29T20:18:39.242Z,7.46
2022-11-29T20:21:08.038Z,7.47
2022-11-29T20:23:34.788Z,7.47
2022-11-29T20:26:01.458Z,7.46
2022-11-29T20:28:28.289Z,7.45
2022-11-29T20:30:54.970Z,7.45
2022-11-29T20:33:24.235Z,7.48
2022-11-29T20:36:06.553Z,7.50
2022-11-29T20:38:43.638Z,7.54
2022-11-29T20:41:24.739Z,7.52
2022-11-29T20:43:56.200Z,7.51
2022-11-29T20:46:23.185Z,7.53
2022-11-29T20:48:50.946Z,7.55
2022-11-29T20:51:17.511Z,7.57
2022-11-29T20:53:46.116Z,7.55
2022-11-29T20:56:12.658Z,7.55
2022-11-29T20:58:39.106Z,7.56
2022-11-29T21:01:06.533Z,7.56
2022-11-29T21:03:33.377Z,7.58
2022-11-29T21:06:05.179Z,7.58
2022-11-29T21:08:31.671Z,7.57
2022-11-29T21:11:05.922Z,7.57
2022-11-29T21:13:33.232Z,7.59
2022-11-29T21:16:00.329Z,7.58
2022-11-29T21:18:29.073Z,7.59
2022-11-29T21:21:20.536Z,7.59
2022-11-29T21:23:56.017Z,7.59
2022-11-29T21:26:41.590Z,7.59
2022-11-29T21:29:15.671Z,7.58
2022-11-29T21:31:42.906Z,7.61
2022-11-29T21:34:09.512Z,7.59
2022-11-29T21:36:37.227Z,7.63
2022-11-29T21:39:06.099Z,7.64
2022-11-29T21:41:32.543Z,7.64
2022-11-29T21:44:06.805Z,7.65
2022-11-29T21:46:34.805Z,7.67
2022-11-29T21:49:01.320Z,7.67
2022-11-29T21:51:27.766Z,7.68
2022-11-29T21:53:54.189Z,7.69
2022-11-29T21:56:20.681Z,7.68
2022-11-29T21:58:47.091Z,7.67
2022-11-29T22:01:15.883Z,7.66
2022-11-29T22:03:43.395Z,7.67
2022-11-29T22:06:23.986Z,7.67
2022-11-29T22:08:50.526Z,7.68
2022-11-29T22:11:30.703Z,7.69
2022-11-29T22:14:18.725Z,7.69
2022-11-29T22:16:57.004Z,7.69
2022-11-29T22:19:31.345Z,7.70
2022-11-29T22:21:59.989Z,7.76
2022-11-29T22:24:29.172Z,7.79
2022-11-29T22:26:56.333Z,7.84
2022-11-29T22:29:23.909Z,7.85
2022-11-29T22:31:53.079Z,7.84
2022-11-29T22:34:20.575Z,7.82
2022-11-29T22:36:46.991Z,7.83
2022-11-29T22:39:13.707Z,7.83
2022-11-29T22:41:40.744Z,7.81
2022-11-29T22:44:07.491Z,7.81
2022-11-29T22:46:40.980Z,7.80
2022-11-29T22:49:07.556Z,7.77
2022-11-29T22:51:36.166Z,7.77
2022-11-29T22:54:05.334Z,7.76
2022-11-29T22:56:37.627Z,7.74
2022-11-29T22:59:04.514Z,7.74
2022-11-29T23:01:33.359Z,7.73
2022-11-29T23:04:03.898Z,7.72
2022-11-29T23:06:33.226Z,7.70
2022-11-29T23:09:04.953Z,7.72
2022-11-29T23:11:31.691Z,7.72
2022-11-29T23:13:58.202Z,7.73
2022-11-29T23:16:27.209Z,7.73
2022-11-29T23:18:54.960Z,7.72
2022-11-29T23:21:24.377Z,7.74
2022-11-29T23:23:56.016Z,7.74
2022-11-29T23:26:26.123Z,7.73
2022-11-29T23:28:53.467Z,7.74
2022-11-29T23:31:21.371Z,7.77
2022-11-29T23:33:48.423Z,7.76
2022-11-29T23:36:15.805Z,7.76
2022-11-29T23:38:42.970Z,7.79
2022-11-29T23:41:09.777Z,7.77
2022-11-29T23:43:37.948Z,7.77
2022-11-29T23:46:14.560Z,7.76
2022-11-29T23:48:41.484Z,7.76
2022-11-29T23:51:07.948Z,7.77
2022-11-29T23:53:34.454Z,7.78
2022-11-29T23:56:03.607Z,7.79
2022-11-29T23:58:31.822Z,7.77
